createdAt,value
2023-03-25T00:01:43.640Z,7.90
2023-03-25T00:03:50.406Z,7.87
2023-03-25T00:05:53.126Z,7.64
2023-03-25T00:07:57.331Z,7.47
2023-03-25T00:10:00.118Z,7.53
2023-03-25T00:12:02.767Z,7.49
2023-03-25T00:14:05.466Z,7.43
2023-03-25T00:16:10.119Z,7.47
2023-03-25T00:18:12.957Z,7.48
2023-03-25T00:20:16.080Z,7.50
2023-03-25T00:22:18.950Z,7.56
2023-03-25T00:24:22.967Z,7.49
2023-03-25T00:26:30.130Z,7.48
2023-03-25T00:28:35.036Z,7.42
2023-03-25T00:30:39.010Z,7.44
2023-03-25T00:32:41.713Z,7.40
2023-03-25T00:34:47.271Z,7.39
2023-03-25T00:36:50.267Z,7.41
2023-03-25T00:38:52.976Z,7.39
2023-03-25T00:40:56.988Z,7.37
2023-03-25T00:42:59.627Z,7.41
2023-03-25T00:45:02.228Z,7.31
2023-03-25T00:47:04.959Z,7.14
2023-03-25T00:49:07.597Z,7.04
2023-03-25T00:51:13.610Z,7.05
2023-03-25T00:53:16.265Z,6.91
2023-03-25T00:55:19.121Z,6.91
2023-03-25T00:57:23.185Z,6.92
2023-03-25T00:59:25.896Z,6.94
2023-03-25T01:01:29.545Z,6.95
2023-03-25T01:03:32.591Z,6.95
2023-03-25T01:05:35.230Z,7.02
2023-03-25T01:07:38.360Z,6.94
2023-03-25T01:09:41.611Z,6.96
2023-03-25T01:11:46.133Z,6.93
2023-03-25T01:13:51.227Z,6.87
2023-03-25T01:15:54.112Z,6.84
2023-03-25T01:17:57.051Z,6.80
2023-03-25T01:19:59.916Z,6.84
2023-03-25T01:22:02.564Z,6.86
2023-03-25T01:24:05.545Z,6.74
2023-03-25T01:26:08.319Z,6.78
2023-03-25T01:28:11.111Z,6.75
2023-03-25T01:30:16.322Z,6.77
2023-03-25T01:32:18.952Z,6.79
2023-03-25T01:34:21.870Z,6.74
2023-03-25T01:36:24.595Z,6.69
2023-03-25T01:38:27.979Z,6.66
2023-03-25T01:40:30.846Z,6.63
2023-03-25T01:42:33.418Z,6.68
2023-03-25T01:45:21.763Z,6.75
2023-03-25T01:47:27.317Z,6.87
2023-03-25T01:49:38.807Z,6.74
2023-03-25T01:51:46.295Z,6.95
2023-03-25T01:53:50.387Z,6.92
2023-03-25T01:55:54.860Z,6.96
2023-03-25T01:57:59.706Z,6.94
2023-03-25T02:00:06.964Z,6.90
2023-03-25T02:02:17.612Z,6.89
2023-03-25T02:04:28.454Z,6.91
2023-03-25T02:06:36.333Z,6.88
2023-03-25T02:08:41.586Z,6.86
2023-03-25T02:10:46.974Z,6.82
2023-03-25T02:12:49.659Z,6.78
2023-03-25T02:14:52.766Z,6.78
2023-03-25T02:17:04.858Z,6.76
2023-03-25T02:19:40.897Z,6.77
2023-03-25T02:22:20.762Z,6.75
2023-03-25T02:24:46.424Z,6.78
2023-03-25T02:27:27.695Z,6.82
2023-03-25T02:29:50.614Z,6.81
2023-03-25T02:32:08.587Z,6.85
2023-03-25T02:34:41.713Z,6.82
2023-03-25T02:37:13.659Z,6.87
2023-03-25T02:39:23.717Z,6.87
2023-03-25T02:41:35.428Z,6.94
2023-03-25T02:43:45.650Z,6.91
2023-03-25T02:45:53.672Z,7.02
2023-03-25T02:48:01.642Z,6.93
2023-03-25T02:50:08.492Z,6.90
2023-03-25T02:52:13.069Z,6.98
2023-03-25T02:54:20.364Z,7.02
2023-03-25T02:56:26.751Z,6.98
2023-03-25T02:58:31.578Z,7.01
2023-03-25T03:00:38.289Z,7.06
2023-03-25T03:02:43.172Z,7.03
2023-03-25T03:04:48.745Z,7.06
2023-03-25T03:06:51.682Z,7.03
2023-03-25T03:09:07.802Z,7.09
2023-03-25T03:11:16.388Z,6.96
2023-03-25T03:13:27.894Z,6.99
2023-03-25T03:15:44.146Z,6.95
2023-03-25T03:17:52.800Z,6.93
2023-03-25T03:19:59.853Z,6.86
2023-03-25T03:22:08.558Z,6.85
2023-03-25T03:24:16.498Z,6.82
2023-03-25T03:26:29.348Z,6.74
2023-03-25T03:28:37.959Z,6.69
2023-03-25T03:30:46.545Z,6.62
2023-03-25T03:32:54.061Z,6.63
2023-03-25T03:35:00.493Z,6.54
2023-03-25T03:37:05.746Z,6.49
2023-03-25T03:39:14.120Z,6.39
2023-03-25T03:41:20.789Z,6.39
2023-03-25T03:43:28.289Z,6.42
2023-03-25T03:45:35.635Z,6.32
2023-03-25T03:47:43.001Z,6.33
2023-03-25T03:49:50.808Z,6.28
2023-03-25T03:51:57.684Z,6.27
2023-03-25T03:54:04.608Z,6.13
2023-03-25T03:56:13.007Z,6.12
2023-03-25T03:58:22.276Z,6.11
2023-03-25T04:00:31.125Z,6.04
2023-03-25T04:02:39.986Z,5.96
2023-03-25T04:04:43.623Z,5.93
2023-03-25T04:06:51.054Z,5.95
2023-03-25T04:08:59.808Z,5.97
2023-03-25T04:11:09.000Z,5.95
2023-03-25T04:13:14.980Z,5.94
2023-03-25T04:15:18.484Z,5.93
2023-03-25T04:17:22.737Z,5.94
2023-03-25T04:19:25.707Z,5.92
2023-03-25T04:21:29.939Z,5.90
2023-03-25T04:23:34.045Z,5.80
2023-03-25T04:25:36.739Z,5.75
2023-03-25T04:27:39.383Z,5.75
2023-03-25T04:29:43.922Z,5.73
2023-03-25T04:31:49.890Z,5.69
2023-03-25T04:33:54.150Z,5.66
2023-03-25T04:35:56.791Z,5.68
2023-03-25T04:37:59.717Z,5.62
2023-03-25T04:40:02.440Z,5.63
2023-03-25T04:42:05.737Z,5.55
2023-03-25T04:44:08.443Z,5.58
2023-03-25T04:46:14.630Z,5.60
2023-03-25T04:48:22.373Z,5.58
2023-03-25T04:50:29.288Z,5.59
2023-03-25T04:52:31.914Z,5.63
2023-03-25T04:54:34.572Z,5.74
2023-03-25T04:56:37.637Z,5.74
2023-03-25T04:58:42.192Z,5.76
2023-03-25T05:00:46.469Z,5.77
2023-03-25T05:02:50.682Z,5.73
2023-03-25T05:04:53.961Z,5.77
2023-03-25T05:07:01.124Z,5.75
2023-03-25T05:09:06.038Z,5.83
2023-03-25T05:11:08.904Z,5.84
2023-03-25T05:13:12.147Z,5.85
2023-03-25T05:15:15.233Z,5.83
2023-03-25T05:17:17.836Z,5.88
2023-03-25T05:19:20.770Z,5.94
2023-03-25T05:21:23.497Z,6.04
2023-03-25T05:23:27.530Z,6.14
2023-03-25T05:25:34.052Z,6.15
2023-03-25T05:27:37.354Z,6.20
2023-03-25T05:29:40.028Z,6.20
2023-03-25T05:31:44.735Z,6.29
2023-03-25T05:33:47.413Z,6.30
2023-03-25T05:35:50.433Z,6.37
2023-03-25T05:37:53.328Z,6.38
2023-03-25T05:39:57.897Z,6.42
2023-03-25T05:42:02.786Z,6.41
2023-03-25T05:44:06.120Z,6.41
2023-03-25T05:46:08.814Z,6.45
2023-03-25T05:48:11.541Z,6.47
2023-03-25T05:50:14.552Z,6.45
2023-03-25T05:52:18.095Z,6.39
2023-03-25T05:54:20.813Z,6.40
2023-03-25T05:56:25.653Z,6.38
2023-03-25T05:58:28.316Z,6.35
2023-03-25T06:00:32.449Z,6.31
2023-03-25T06:02:35.768Z,6.33
2023-03-25T06:04:41.192Z,6.40
2023-03-25T06:06:43.968Z,6.38
2023-03-25T06:08:49.939Z,6.50
2023-03-25T06:10:54.306Z,6.43
2023-03-25T06:12:58.351Z,6.44
2023-03-25T06:15:00.950Z,6.42
2023-03-25T06:17:03.621Z,6.45
2023-03-25T06:19:09.408Z,6.43
2023-03-25T06:21:12.390Z,6.50
2023-03-25T06:23:15.026Z,6.53
2023-03-25T06:25:20.577Z,6.54
2023-03-25T06:27:23.745Z,6.65
2023-03-25T06:29:27.745Z,6.68
2023-03-25T06:31:33.409Z,6.70
2023-03-25T06:33:42.310Z,6.77
2023-03-25T06:35:53.467Z,6.82
2023-03-25T06:37:56.192Z,6.83
2023-03-25T06:39:59.881Z,6.89
2023-03-25T06:42:02.682Z,7.13
2023-03-25T06:44:05.461Z,7.05
2023-03-25T06:46:09.596Z,7.05
2023-03-25T06:48:12.309Z,7.10
2023-03-25T06:50:15.369Z,7.07
2023-03-25T06:52:18.063Z,7.16
2023-03-25T06:54:20.677Z,7.22
2023-03-25T06:56:23.334Z,7.44
2023-03-25T06:58:34.390Z,7.37
2023-03-25T07:00:37.120Z,7.19
2023-03-25T07:02:41.359Z,7.45
2023-03-25T07:04:44.108Z,7.36
2023-03-25T07:06:46.733Z,7.28
2023-03-25T07:08:49.945Z,7.33
2023-03-25T07:10:52.673Z,7.20
2023-03-25T07:12:55.325Z,7.16
2023-03-25T07:14:59.040Z,7.23
2023-03-25T07:17:01.724Z,7.17
2023-03-25T07:19:06.047Z,7.16
2023-03-25T07:21:09.036Z,7.16
2023-03-25T07:23:11.670Z,7.22
2023-03-25T07:25:14.359Z,7.33
2023-03-25T07:27:17.008Z,7.27
2023-03-25T07:29:19.955Z,7.38
2023-03-25T07:31:22.993Z,7.45
2023-03-25T07:33:25.803Z,7.54
2023-03-25T07:35:29.904Z,7.46
2023-03-25T07:37:32.583Z,7.43
2023-03-25T07:39:35.284Z,7.66
2023-03-25T07:41:37.890Z,7.67
2023-03-25T07:43:41.115Z,8.01
2023-03-25T07:45:44.705Z,7.94
2023-03-25T07:47:50.378Z,9.02
2023-03-25T07:49:53.197Z,8.78
2023-03-25T07:51:57.149Z,8.37
2023-03-25T07:54:04.919Z,9.57
2023-03-25T07:56:09.150Z,9.34
2023-03-25T07:58:11.859Z,10.01
2023-03-25T08:00:15.258Z,9.53
2023-03-25T08:02:18.057Z,9.22
2023-03-25T08:04:20.721Z,9.17
2023-03-25T08:06:23.589Z,9.05
2023-03-25T08:08:30.037Z,8.73
2023-03-25T08:10:32.668Z,8.50
2023-03-25T08:12:36.783Z,8.35
2023-03-25T08:14:39.540Z,8.52
2023-03-25T08:16:42.285Z,8.57
2023-03-25T08:18:45.798Z,9.74
2023-03-25T08:20:50.711Z,8.94
2023-03-25T08:22:53.422Z,8.57
2023-03-25T08:24:57.742Z,8.64
2023-03-25T08:27:01.544Z,8.48
2023-03-25T08:29:18.135Z,8.51
2023-03-25T08:31:21.032Z,8.37
2023-03-25T08:33:27.102Z,8.37
2023-03-25T08:35:30.214Z,8.31
2023-03-25T08:37:35.255Z,8.17
2023-03-25T08:39:40.123Z,8.08
2023-03-25T08:41:45.252Z,8.03
2023-03-25T08:43:47.920Z,7.68
2023-03-25T08:45:50.761Z,7.49
2023-03-25T08:47:53.649Z,7.00
2023-03-25T08:49:56.311Z,6.97
2023-03-25T08:52:00.693Z,7.00
2023-03-25T08:54:03.497Z,7.24
2023-03-25T08:56:07.668Z,7.37
2023-03-25T08:58:11.658Z,7.78
2023-03-25T09:00:16.572Z,7.54
2023-03-25T09:02:19.232Z,7.52
2023-03-25T09:04:21.848Z,7.26
2023-03-25T09:06:24.520Z,7.18
2023-03-25T09:08:27.169Z,7.09
2023-03-25T09:10:29.814Z,7.11
2023-03-25T09:12:32.441Z,7.22
2023-03-25T09:14:36.468Z,7.06
2023-03-25T09:16:39.156Z,6.91
2023-03-25T09:18:41.912Z,6.88
2023-03-25T09:20:47.659Z,7.00
2023-03-25T09:22:50.710Z,7.07
2023-03-25T09:24:53.508Z,7.14
2023-03-25T09:26:56.395Z,7.30
2023-03-25T09:29:00.641Z,7.16
2023-03-25T09:31:04.843Z,7.30
2023-03-25T09:33:07.780Z,7.28
2023-03-25T09:35:10.846Z,7.24
2023-03-25T09:37:13.672Z,7.31
2023-03-25T09:39:16.463Z,8.17
2023-03-25T09:41:33.958Z,7.84
2023-03-25T09:43:49.108Z,7.92
2023-03-25T09:45:52.827Z,8.06
2023-03-25T09:48:02.162Z,8.16
2023-03-25T09:50:11.906Z,9.00
2023-03-25T09:52:18.012Z,9.37
2023-03-25T09:54:26.069Z,9.94
2023-03-25T09:56:32.421Z,9.17
2023-03-25T09:58:41.584Z,10.58
2023-03-25T10:00:46.107Z,9.56
2023-03-25T10:02:57.043Z,9.67
2023-03-25T10:05:22.282Z,10.59
2023-03-25T10:07:41.899Z,10.50
2023-03-25T10:09:52.334Z,10.76
2023-03-25T10:12:02.306Z,11.25
2023-03-25T10:14:11.156Z,10.53
2023-03-25T10:16:22.369Z,11.77
2023-03-25T10:18:45.807Z,12.58
2023-03-25T10:21:00.145Z,12.27
2023-03-25T10:23:12.624Z,11.59
2023-03-25T10:25:17.262Z,11.01
2023-03-25T10:27:24.165Z,11.76
2023-03-25T10:29:31.600Z,11.65
2023-03-25T10:31:40.650Z,11.09
2023-03-25T10:33:51.491Z,10.64
2023-03-25T10:35:58.440Z,10.81
2023-03-25T10:38:13.778Z,11.58
2023-03-25T10:40:25.338Z,10.76
2023-03-25T10:42:34.276Z,12.12
2023-03-25T10:44:36.928Z,11.98
2023-03-25T10:46:47.749Z,11.69
2023-03-25T10:48:51.284Z,11.04
2023-03-25T10:51:03.922Z,11.22
2023-03-25T10:53:07.171Z,10.79
2023-03-25T10:55:22.647Z,11.32
2023-03-25T10:57:29.173Z,10.89
2023-03-25T10:59:37.533Z,10.56
2023-03-25T11:01:42.711Z,10.80
2023-03-25T11:03:51.041Z,10.79
2023-03-25T11:05:55.265Z,11.21
2023-03-25T11:08:08.827Z,11.09
2023-03-25T11:10:21.280Z,11.02
2023-03-25T11:12:36.715Z,11.03
2023-03-25T11:14:45.079Z,11.08
2023-03-25T11:16:52.658Z,10.75
2023-03-25T11:18:55.364Z,11.04
2023-03-25T11:21:05.919Z,11.47
2023-03-25T11:23:17.685Z,11.03
2023-03-25T11:25:25.678Z,11.42
2023-03-25T11:27:30.431Z,11.40
2023-03-25T11:29:35.115Z,10.88
2023-03-25T11:31:39.529Z,10.65
2023-03-25T11:33:43.876Z,11.25
2023-03-25T11:35:49.246Z,11.08
2023-03-25T11:37:58.666Z,11.47
2023-03-25T11:40:11.745Z,11.43
2023-03-25T11:42:25.385Z,11.58
2023-03-25T11:44:31.137Z,11.77
2023-03-25T11:46:38.036Z,11.86
2023-03-25T11:48:42.766Z,11.91
2023-03-25T11:50:52.256Z,11.80
2023-03-25T11:52:59.578Z,11.80
2023-03-25T11:55:02.862Z,11.66
2023-03-25T11:57:12.087Z,11.42
2023-03-25T11:59:25.864Z,11.62
2023-03-25T12:01:31.708Z,11.70
2023-03-25T12:03:36.101Z,11.84
2023-03-25T12:05:39.102Z,11.39
2023-03-25T12:07:43.636Z,11.15
2023-03-25T12:09:55.860Z,11.85
2023-03-25T12:12:10.940Z,12.18
2023-03-25T12:14:33.322Z,11.80
2023-03-25T12:16:45.298Z,11.93
2023-03-25T12:19:10.691Z,12.06
2023-03-25T12:21:26.265Z,11.88
2023-03-25T12:23:42.242Z,11.98
2023-03-25T12:25:59.429Z,11.68
2023-03-25T12:28:21.563Z,11.81
2023-03-25T12:30:42.129Z,11.74
2023-03-25T12:32:55.007Z,11.61
2023-03-25T12:35:11.198Z,12.44
2023-03-25T12:37:24.972Z,12.17
2023-03-25T12:39:47.120Z,12.96
2023-03-25T12:42:00.579Z,12.17
2023-03-25T12:44:11.776Z,12.06
2023-03-25T12:46:31.025Z,12.10
2023-03-25T12:48:49.038Z,11.56
2023-03-25T12:51:01.279Z,11.38
2023-03-25T12:53:17.539Z,10.28
2023-03-25T12:55:44.534Z,10.10
2023-03-25T12:58:00.583Z,10.61
2023-03-25T13:00:33.274Z,11.22
2023-03-25T13:03:00.833Z,10.52
2023-03-25T13:05:18.851Z,10.89
2023-03-25T13:07:27.237Z,11.33
2023-03-25T13:09:35.442Z,11.62
2023-03-25T13:11:42.324Z,11.06
2023-03-25T13:13:49.545Z,11.60
2023-03-25T13:16:03.283Z,11.79
2023-03-25T13:18:11.719Z,11.74
2023-03-25T13:20:17.921Z,11.94
2023-03-25T13:22:25.836Z,11.56
2023-03-25T13:24:36.005Z,11.46
2023-03-25T13:26:42.099Z,11.98
2023-03-25T13:28:49.284Z,11.42
2023-03-25T13:30:52.808Z,11.45
2023-03-25T13:32:58.214Z,11.13
2023-03-25T13:35:07.416Z,10.74
2023-03-25T13:37:16.601Z,11.18
2023-03-25T13:39:23.863Z,11.17
2023-03-25T13:41:32.115Z,11.35
2023-03-25T13:43:42.919Z,11.05
2023-03-25T13:45:52.337Z,11.13
2023-03-25T13:48:03.677Z,11.69
2023-03-25T13:50:15.626Z,11.70
2023-03-25T13:52:18.901Z,11.53
2023-03-25T13:54:26.433Z,12.11
2023-03-25T13:57:03.179Z,12.17
2023-03-25T13:59:26.079Z,11.59
2023-03-25T14:01:49.680Z,11.94
2023-03-25T14:04:18.341Z,12.31
2023-03-25T14:06:46.671Z,12.21
2023-03-25T14:09:27.382Z,11.73
2023-03-25T14:11:35.973Z,11.38
2023-03-25T14:13:42.248Z,11.34
2023-03-25T14:15:53.194Z,11.27
2023-03-25T14:17:58.417Z,11.14
2023-03-25T14:20:01.416Z,11.00
2023-03-25T14:22:09.393Z,10.39
2023-03-25T14:24:17.078Z,9.18
2023-03-25T14:26:20.195Z,9.61
2023-03-25T14:28:37.352Z,10.11
2023-03-25T14:30:40.153Z,10.53
2023-03-25T14:32:44.689Z,10.91
2023-03-25T14:34:50.426Z,11.15
2023-03-25T14:37:25.981Z,11.60
2023-03-25T14:39:39.520Z,11.69
2023-03-25T14:42:02.824Z,11.57
2023-03-25T14:44:19.676Z,11.43
2023-03-25T14:46:23.972Z,11.68
2023-03-25T14:48:31.580Z,11.65
2023-03-25T14:50:35.746Z,11.82
2023-03-25T14:52:42.537Z,12.06
2023-03-25T14:54:49.967Z,11.83
2023-03-25T14:57:01.756Z,11.86
2023-03-25T14:59:10.778Z,12.10
2023-03-25T15:01:18.828Z,11.84
2023-03-25T15:03:22.746Z,12.02
2023-03-25T15:05:28.721Z,12.28
2023-03-25T15:07:44.867Z,12.24
2023-03-25T15:09:53.691Z,12.14
2023-03-25T15:11:59.970Z,12.17
2023-03-25T15:14:06.852Z,12.33
2023-03-25T15:16:19.635Z,12.27
2023-03-25T15:18:56.026Z,12.17
2023-03-25T15:21:04.065Z,12.39
2023-03-25T15:23:47.516Z,12.22
2023-03-25T15:25:52.885Z,11.95
2023-03-25T15:28:07.669Z,12.18
2023-03-25T15:30:28.757Z,12.15
2023-03-25T15:32:50.024Z,12.41
2023-03-25T15:35:40.568Z,11.79
2023-03-25T15:38:04.286Z,11.81
2023-03-25T15:40:19.617Z,11.58
2023-03-25T15:42:40.096Z,11.78
2023-03-25T15:45:09.749Z,11.79
2023-03-25T15:47:51.796Z,11.73
2023-03-25T15:50:20.633Z,11.64
2023-03-25T15:52:37.519Z,11.41
2023-03-25T15:54:44.725Z,11.59
2023-03-25T15:56:51.033Z,11.43
2023-03-25T15:58:59.443Z,11.17
2023-03-25T16:01:21.550Z,11.11
2023-03-25T16:03:30.092Z,11.30
2023-03-25T16:05:35.177Z,11.30
2023-03-25T16:07:38.095Z,11.34
2023-03-25T16:09:46.090Z,11.18
2023-03-25T16:11:50.149Z,11.20
2023-03-25T16:14:04.579Z,11.25
2023-03-25T16:16:09.227Z,11.23
2023-03-25T16:18:16.600Z,11.39
2023-03-25T16:20:24.641Z,11.09
2023-03-25T16:22:29.186Z,11.05
2023-03-25T16:24:34.011Z,11.09
2023-03-25T16:26:39.230Z,11.14
2023-03-25T16:28:43.423Z,11.23
2023-03-25T16:30:53.246Z,11.20
2023-03-25T16:33:12.787Z,11.13
2023-03-25T16:35:21.088Z,11.03
2023-03-25T16:37:25.254Z,10.94
2023-03-25T16:39:28.726Z,10.91
2023-03-25T16:41:31.716Z,10.86
2023-03-25T16:43:34.770Z,10.95
2023-03-25T16:45:39.896Z,10.85
2023-03-25T16:47:44.085Z,10.90
2023-03-25T16:49:52.414Z,10.92
2023-03-25T16:51:57.514Z,10.85
2023-03-25T16:54:00.231Z,10.83
2023-03-25T16:56:05.689Z,10.76
2023-03-25T16:58:16.089Z,10.68
2023-03-25T17:00:22.237Z,10.74
2023-03-25T17:02:29.206Z,10.70
2023-03-25T17:04:41.824Z,10.71
2023-03-25T17:06:47.535Z,10.70
2023-03-25T17:08:51.949Z,10.69
2023-03-25T17:10:58.152Z,10.64
2023-03-25T17:13:05.434Z,10.66
2023-03-25T17:15:15.325Z,10.59
2023-03-25T17:17:33.029Z,10.56
2023-03-25T17:19:37.113Z,10.48
2023-03-25T17:22:01.699Z,10.46
2023-03-25T17:24:21.926Z,10.44
2023-03-25T17:26:26.628Z,10.42
2023-03-25T17:28:35.274Z,10.40
2023-03-25T17:30:42.651Z,10.40
2023-03-25T17:32:47.572Z,10.35
2023-03-25T17:35:06.381Z,10.29
2023-03-25T17:37:13.780Z,10.29
2023-03-25T17:39:19.769Z,10.22
2023-03-25T17:41:23.016Z,10.24
2023-03-25T17:43:26.532Z,10.22
2023-03-25T17:45:30.166Z,10.18
2023-03-25T17:47:32.903Z,10.14
2023-03-25T17:49:36.904Z,10.12
2023-03-25T17:51:40.734Z,10.02
2023-03-25T17:53:43.421Z,10.04
2023-03-25T17:55:46.843Z,9.98
2023-03-25T17:57:50.635Z,9.93
2023-03-25T17:59:55.618Z,9.85
2023-03-25T18:01:58.465Z,9.83
2023-03-25T18:04:01.103Z,9.78
2023-03-25T18:06:05.500Z,9.73
2023-03-25T18:08:10.908Z,9.73
2023-03-25T18:10:18.454Z,9.80
2023-03-25T18:12:21.135Z,9.78
2023-03-25T18:14:25.279Z,9.81
2023-03-25T18:16:27.933Z,9.86
2023-03-25T18:18:30.633Z,9.84
2023-03-25T18:20:35.532Z,9.78
2023-03-25T18:22:39.522Z,9.68
2023-03-25T18:24:42.170Z,9.64
2023-03-25T18:26:46.807Z,9.61
2023-03-25T18:28:49.773Z,9.56
2023-03-25T18:30:55.216Z,9.52
2023-03-25T18:32:58.595Z,9.43
2023-03-25T18:35:01.191Z,9.45
2023-03-25T18:37:08.405Z,9.37
2023-03-25T18:39:16.694Z,9.37
2023-03-25T18:41:19.347Z,9.29
2023-03-25T18:43:24.675Z,9.27
2023-03-25T18:45:27.566Z,9.19
2023-03-25T18:47:30.323Z,9.09
2023-03-25T18:49:32.989Z,9.05
2023-03-25T18:51:37.417Z,9.05
2023-03-25T18:53:40.859Z,8.88
2023-03-25T18:55:46.043Z,8.87
2023-03-25T18:57:49.258Z,8.85
2023-03-25T18:59:51.890Z,8.78
2023-03-25T19:01:54.503Z,8.68
2023-03-25T19:04:02.298Z,8.70
2023-03-25T19:06:07.466Z,8.64
2023-03-25T19:08:16.423Z,8.61
2023-03-25T19:10:21.780Z,8.56
2023-03-25T19:12:25.726Z,8.59
2023-03-25T19:14:28.353Z,8.49
2023-03-25T19:16:31.072Z,8.53
2023-03-25T19:18:34.691Z,8.43
2023-03-25T19:20:37.346Z,8.47
2023-03-25T19:22:40.816Z,8.41
2023-03-25T19:24:43.873Z,8.32
2023-03-25T19:26:46.845Z,8.33
2023-03-25T19:28:50.887Z,8.32
2023-03-25T19:30:55.899Z,8.36
2023-03-25T19:32:58.810Z,8.39
2023-03-25T19:35:01.755Z,8.42
2023-03-25T19:37:05.130Z,8.39
2023-03-25T19:39:08.847Z,8.38
2023-03-25T19:41:14.121Z,8.29
2023-03-25T19:43:16.907Z,8.35
2023-03-25T19:45:21.560Z,8.14
2023-03-25T19:47:24.360Z,7.80
2023-03-25T19:49:39.414Z,7.62
2023-03-25T19:51:43.106Z,7.70
2023-03-25T19:53:46.060Z,7.76
2023-03-25T19:55:48.738Z,7.52
2023-03-25T19:57:52.237Z,7.59
2023-03-25T19:59:55.187Z,7.60
2023-03-25T20:02:00.289Z,7.61
2023-03-25T20:04:04.076Z,7.64
2023-03-25T20:06:07.553Z,7.52
2023-03-25T20:08:11.648Z,7.50
2023-03-25T20:10:20.148Z,7.40
2023-03-25T20:12:22.997Z,7.28
2023-03-25T20:14:25.977Z,7.39
2023-03-25T20:16:30.767Z,7.37
2023-03-25T20:18:34.792Z,7.36
2023-03-25T20:20:37.461Z,7.41
2023-03-25T20:22:41.180Z,7.33
2023-03-25T20:24:43.850Z,7.32
2023-03-25T20:26:46.746Z,7.50
2023-03-25T20:28:49.407Z,7.44
2023-03-25T20:30:52.416Z,7.52
2023-03-25T20:32:55.356Z,7.51
2023-03-25T20:34:59.515Z,7.54
2023-03-25T20:37:02.396Z,7.56
2023-03-25T20:39:05.921Z,7.66
2023-03-25T20:41:08.904Z,7.61
2023-03-25T20:43:13.746Z,7.60
2023-03-25T20:45:18.435Z,7.58
2023-03-25T20:47:21.284Z,7.67
2023-03-25T20:49:24.076Z,7.47
2023-03-25T20:51:28.637Z,7.59
2023-03-25T20:53:31.904Z,7.46
2023-03-25T20:55:34.834Z,7.46
2023-03-25T20:57:37.478Z,7.49
2023-03-25T20:59:40.308Z,7.45
2023-03-25T21:01:43.144Z,7.43
2023-03-25T21:03:45.843Z,7.48
2023-03-25T21:05:48.929Z,7.46
2023-03-25T21:07:52.994Z,7.53
2023-03-25T21:09:55.828Z,7.60
2023-03-25T21:11:58.562Z,7.60
2023-03-25T21:14:01.158Z,7.63
2023-03-25T21:16:04.467Z,7.69
2023-03-25T21:18:08.852Z,7.67
2023-03-25T21:20:12.986Z,7.64
2023-03-25T21:22:15.774Z,7.56
2023-03-25T21:24:21.544Z,7.46
2023-03-25T21:26:24.860Z,7.56
2023-03-25T21:28:28.699Z,7.55
2023-03-25T21:30:31.664Z,7.65
2023-03-25T21:32:34.386Z,7.66
2023-03-25T21:34:37.022Z,7.71
2023-03-25T21:36:39.588Z,7.60
2023-03-25T21:38:42.827Z,7.57
2023-03-25T21:40:47.242Z,7.64
2023-03-25T21:42:50.787Z,7.58
2023-03-25T21:44:53.449Z,7.65
2023-03-25T21:46:56.048Z,7.62
2023-03-25T21:49:00.745Z,7.55
2023-03-25T21:51:04.652Z,7.66
2023-03-25T21:53:13.233Z,7.75
2023-03-25T21:55:17.098Z,7.76
2023-03-25T21:57:21.872Z,7.84
2023-03-25T21:59:24.848Z,7.79
2023-03-25T22:01:29.502Z,7.66
2023-03-25T22:03:35.291Z,7.56
2023-03-25T22:05:38.280Z,7.65
2023-03-25T22:07:41.500Z,7.56
2023-03-25T22:09:44.109Z,7.61
2023-03-25T22:11:46.777Z,7.54
2023-03-25T22:13:51.647Z,7.52
2023-03-25T22:15:54.530Z,7.48
2023-03-25T22:17:57.341Z,7.50
2023-03-25T22:19:59.943Z,7.38
2023-03-25T22:22:03.277Z,7.36
2023-03-25T22:24:07.787Z,7.30
2023-03-25T22:26:11.209Z,7.31
2023-03-25T22:28:13.810Z,7.35
2023-03-25T22:30:17.990Z,7.19
2023-03-25T22:32:20.972Z,7.23
2023-03-25T22:34:23.706Z,7.23
2023-03-25T22:36:26.428Z,7.26
2023-03-25T22:38:29.051Z,7.22
2023-03-25T22:40:31.808Z,7.16
2023-03-25T22:42:34.444Z,7.20
2023-03-25T22:44:37.162Z,7.34
2023-03-25T22:46:41.278Z,7.25
2023-03-25T22:48:44.227Z,7.31
2023-03-25T22:50:46.834Z,7.43
2023-03-25T22:52:49.545Z,7.51
2023-03-25T22:54:52.339Z,7.44
2023-03-25T22:56:55.038Z,7.31
2023-03-25T22:58:57.686Z,7.33
2023-03-25T23:01:02.967Z,7.41
2023-03-25T23:03:08.456Z,7.53
2023-03-25T23:05:11.277Z,7.54
2023-03-25T23:07:14.201Z,7.57
2023-03-25T23:09:36.944Z,7.59
2023-03-25T23:11:40.133Z,7.61
2023-03-25T23:13:44.626Z,7.58
2023-03-25T23:15:47.562Z,7.54
2023-03-25T23:17:50.411Z,7.48
2023-03-25T23:19:54.428Z,7.49
2023-03-25T23:21:57.360Z,7.45
2023-03-25T23:24:02.919Z,7.47
2023-03-25T23:26:08.524Z,7.17
2023-03-25T23:28:12.465Z,7.32
2023-03-25T23:30:15.167Z,7.19
2023-03-25T23:32:17.844Z,7.22
2023-03-25T23:34:20.517Z,7.24
2023-03-25T23:36:25.690Z,7.08
2023-03-25T23:38:28.823Z,7.14
2023-03-25T23:40:31.529Z,7.17
2023-03-25T23:42:35.466Z,6.87
2023-03-25T23:44:38.945Z,6.76
2023-03-25T23:46:42.648Z,6.76
2023-03-25T23:48:45.744Z,6.77
2023-03-25T23:50:48.459Z,6.93
2023-03-25T23:52:52.492Z,6.85
2023-03-25T23:54:55.307Z,6.78
2023-03-25T23:56:58.649Z,6.74
2023-03-25T23:59:02.258Z,6.70
